createdAt,value
2018-08-14T00:01:32.323Z,91.20
2018-08-14T00:04:00.850Z,91.30
2018-08-14T00:06:29.328Z,91.30
2018-08-14T00:08:57.970Z,91.60
2018-08-14T00:11:26.521Z,91.80
2018-08-14T00:13:55.053Z,92.00
2018-08-14T00:16:23.572Z,92.00
2018-08-14T00:18:52.138Z,91.80
2018-08-14T00:21:20.654Z,92.10
2018-08-14T00:23:49.156Z,91.80
2018-08-14T00:26:17.663Z,91.80
2018-08-14T00:28:46.177Z,91.90
2018-08-14T00:31:14.712Z,91.80
2018-08-14T00:33:43.293Z,91.80
2018-08-14T00:36:11.795Z,91.80
2018-08-14T00:38:40.400Z,91.80
2018-08-14T00:41:08.922Z,92.00
2018-08-14T00:43:37.437Z,91.80
2018-08-14T00:46:06.042Z,91.80
2018-08-14T00:48:34.511Z,92.20
2018-08-14T00:51:03.013Z,92.40
2018-08-14T00:53:31.558Z,92.30
2018-08-14T00:56:00.119Z,92.30
2018-08-14T00:58:28.590Z,92.40
2018-08-14T01:00:57.068Z,92.60
2018-08-14T01:03:25.599Z,92.60
2018-08-14T01:05:54.377Z,92.60
2018-08-14T01:08:22.933Z,92.50
2018-08-14T01:10:51.448Z,92.50
2018-08-14T01:13:19.924Z,92.40
2018-08-14T01:15:48.464Z,92.40
2018-08-14T01:18:16.941Z,92.40
2018-08-14T01:20:50.799Z,92.40
2018-08-14T01:23:19.283Z,92.30
2018-08-14T01:25:47.908Z,92.30
2018-08-14T01:28:16.374Z,92.20
2018-08-14T01:30:44.879Z,92.40
2018-08-14T01:33:13.404Z,92.40
2018-08-14T01:35:41.896Z,92.30
2018-08-14T01:38:10.414Z,92.20
2018-08-14T01:40:38.889Z,92.10
2018-08-14T01:43:07.451Z,92.20
2018-08-14T01:45:35.918Z,92.10
2018-08-14T01:48:04.506Z,92.10
2018-08-14T01:50:32.981Z,92.00
2018-08-14T01:53:01.473Z,91.90
2018-08-14T01:55:29.949Z,91.90
2018-08-14T01:57:58.546Z,91.80
2018-08-14T02:00:27.076Z,91.90
2018-08-14T02:03:05.794Z,91.90
2018-08-14T02:05:34.302Z,91.90
2018-08-14T02:08:02.998Z,91.90
2018-08-14T02:10:32.090Z,91.90
2018-08-14T02:13:00.587Z,91.90
2018-08-14T02:15:29.065Z,91.80
2018-08-14T02:17:57.601Z,91.60
2018-08-14T02:20:26.198Z,91.60
2018-08-14T02:22:55.845Z,91.60
2018-08-14T02:25:24.483Z,91.70
2018-08-14T02:27:53.181Z,91.70
2018-08-14T02:30:21.709Z,91.90
2018-08-14T02:32:50.191Z,91.70
2018-08-14T02:35:18.703Z,91.70
2018-08-14T02:37:47.195Z,91.60
2018-08-14T02:40:18.117Z,91.60
2018-08-14T02:42:47.106Z,91.50
2018-08-14T02:45:15.701Z,91.40
2018-08-14T02:47:44.190Z,91.40
2018-08-14T02:50:13.499Z,91.40
2018-08-14T02:52:42.441Z,91.50
2018-08-14T02:55:13.214Z,91.60
2018-08-14T02:57:41.771Z,91.70
2018-08-14T03:00:14.597Z,91.90
2018-08-14T03:02:43.160Z,92.00
2018-08-14T03:05:11.694Z,92.00
2018-08-14T03:07:40.273Z,92.10
2018-08-14T03:10:10.324Z,92.00
2018-08-14T03:12:38.942Z,92.20
2018-08-14T03:15:08.118Z,92.40
2018-08-14T03:17:36.686Z,92.90
2018-08-14T03:20:05.567Z,92.60
2018-08-14T03:22:34.470Z,92.60
2018-08-14T03:25:02.941Z,92.60
2018-08-14T03:27:31.409Z,92.60
2018-08-14T03:29:59.901Z,92.60
2018-08-14T03:32:28.408Z,92.70
2018-08-14T03:34:56.953Z,92.70
2018-08-14T03:37:25.467Z,92.70
2018-08-14T03:39:53.960Z,92.80
2018-08-14T03:42:22.457Z,92.80
2018-08-14T03:44:50.890Z,92.80
2018-08-14T03:47:19.403Z,92.70
2018-08-14T03:49:47.870Z,92.80
2018-08-14T03:52:16.358Z,92.80
2018-08-14T03:54:49.101Z,92.80
2018-08-14T03:57:21.250Z,92.70
2018-08-14T03:59:49.774Z,92.70
2018-08-14T04:02:18.311Z,92.80
2018-08-14T04:04:47.459Z,92.70
2018-08-14T04:07:15.966Z,92.70
2018-08-14T04:09:44.893Z,92.60
2018-08-14T04:12:13.342Z,92.70
2018-08-14T04:14:41.929Z,92.70
2018-08-14T04:17:10.789Z,92.60
2018-08-14T04:19:39.305Z,92.50
2018-08-14T04:22:07.761Z,92.50
2018-08-14T04:24:36.245Z,92.60
2018-08-14T04:27:04.738Z,92.60
2018-08-14T04:29:33.250Z,92.70
2018-08-14T04:32:01.678Z,92.70
2018-08-14T04:34:30.158Z,92.60
2018-08-14T04:36:58.686Z,92.60
2018-08-14T04:39:27.198Z,92.80
2018-08-14T04:41:55.629Z,92.80
2018-08-14T04:44:24.093Z,92.80
2018-08-14T04:46:52.579Z,92.80
2018-08-14T04:49:22.292Z,92.90
2018-08-14T04:51:52.263Z,92.80
2018-08-14T04:54:20.774Z,93.00
2018-08-14T04:56:49.251Z,93.00
2018-08-14T04:59:17.962Z,93.10
2018-08-14T05:01:46.673Z,93.10
2018-08-14T05:04:15.181Z,93.10
2018-08-14T05:06:44.409Z,93.10
2018-08-14T05:09:14.708Z,93.20
2018-08-14T05:11:43.374Z,93.20
2018-08-14T05:14:11.846Z,93.20
2018-08-14T05:16:46.530Z,93.20
2018-08-14T05:19:15.044Z,93.10
2018-08-14T05:21:43.514Z,93.10
2018-08-14T05:24:11.992Z,93.00
2018-08-14T05:26:40.497Z,93.10
2018-08-14T05:29:08.978Z,93.10
2018-08-14T05:31:37.453Z,93.10
2018-08-14T05:34:05.912Z,93.10
2018-08-14T05:36:34.441Z,93.10
2018-08-14T05:39:03.068Z,93.10
2018-08-14T05:41:31.578Z,93.10
2018-08-14T05:44:00.062Z,93.10
2018-08-14T05:46:28.505Z,93.10
2018-08-14T05:48:56.966Z,93.00
2018-08-14T05:51:25.447Z,93.00
2018-08-14T05:53:53.994Z,92.80
2018-08-14T05:56:22.435Z,92.80
2018-08-14T05:58:50.959Z,92.90
2018-08-14T06:01:19.426Z,92.90
2018-08-14T06:03:47.945Z,92.90
2018-08-14T06:06:16.420Z,92.70
2018-08-14T06:08:44.919Z,92.30
2018-08-14T06:11:13.366Z,92.10
2018-08-14T06:13:41.911Z,92.30
2018-08-14T06:16:10.386Z,92.60
2018-08-14T06:18:38.872Z,92.10
2018-08-14T06:21:07.873Z,92.10
2018-08-14T06:23:36.420Z,91.90
2018-08-14T06:26:04.951Z,91.80
2018-08-14T06:28:33.462Z,91.80
2018-08-14T06:31:01.982Z,91.60
2018-08-14T06:33:30.576Z,91.40
2018-08-14T06:35:59.085Z,91.40
2018-08-14T06:38:27.554Z,91.40
2018-08-14T06:40:56.056Z,91.30
2018-08-14T06:43:24.525Z,91.20
2018-08-14T06:45:53.013Z,91.00
2018-08-14T06:48:21.456Z,91.00
2018-08-14T06:50:49.917Z,90.80
2018-08-14T06:53:18.394Z,90.70
2018-08-14T06:55:46.886Z,89.60
2018-08-14T06:58:15.398Z,87.90
2018-08-14T07:00:43.886Z,87.80
2018-08-14T07:03:12.369Z,87.70
2018-08-14T07:05:40.875Z,87.20
2018-08-14T07:08:09.403Z,86.90
2018-08-14T07:10:37.929Z,86.80
2018-08-14T07:13:06.480Z,85.20
2018-08-14T07:15:35.078Z,84.10
2018-08-14T07:18:03.545Z,84.60
2018-08-14T07:20:32.045Z,84.80
2018-08-14T07:23:00.575Z,82.60
2018-08-14T07:25:29.132Z,83.00
2018-08-14T07:27:57.705Z,82.20
2018-08-14T07:30:26.783Z,82.60
2018-08-14T07:32:55.343Z,81.90
2018-08-14T07:35:23.862Z,81.40
2018-08-14T07:37:52.372Z,81.30
2018-08-14T07:40:20.914Z,79.80
2018-08-14T07:42:49.388Z,79.10
2018-08-14T07:45:18.484Z,79.80
2018-08-14T07:47:47.030Z,80.10
2018-08-14T07:50:15.872Z,80.00
2018-08-14T07:52:45.108Z,80.10
2018-08-14T07:55:14.140Z,80.30
2018-08-14T07:57:43.154Z,79.80
2018-08-14T08:00:14.401Z,80.10
2018-08-14T08:02:42.945Z,78.40
2018-08-14T08:05:11.422Z,78.50
2018-08-14T08:07:39.982Z,77.20
2018-08-14T08:10:10.690Z,76.70
2018-08-14T08:12:39.643Z,76.20
2018-08-14T08:15:10.659Z,76.30
2018-08-14T08:17:39.686Z,75.90
2018-08-14T08:20:08.962Z,76.20
2018-08-14T08:22:37.682Z,74.60
2018-08-14T08:25:07.127Z,74.70
2018-08-14T08:27:35.769Z,72.80
2018-08-14T08:30:05.943Z,72.00
2018-08-14T08:32:34.409Z,71.30
2018-08-14T08:35:02.993Z,71.90
2018-08-14T08:37:31.489Z,73.00
2018-08-14T08:40:00.038Z,73.40
2018-08-14T08:42:28.650Z,72.80
2018-08-14T08:44:57.137Z,73.20
2018-08-14T08:47:25.727Z,72.80
2018-08-14T08:49:54.187Z,73.20
2018-08-14T08:52:22.738Z,70.20
2018-08-14T08:54:51.269Z,67.40
2018-08-14T08:57:19.785Z,66.40
2018-08-14T08:59:48.257Z,66.10
2018-08-14T09:02:16.820Z,66.90
2018-08-14T09:04:45.279Z,67.60
2018-08-14T09:07:13.780Z,67.30
2018-08-14T09:09:42.249Z,66.90
2018-08-14T09:12:10.814Z,67.60
2018-08-14T09:14:39.293Z,66.90
2018-08-14T09:17:07.883Z,66.90
2018-08-14T09:19:37.266Z,66.30
2018-08-14T09:22:05.784Z,67.20
2018-08-14T09:24:34.328Z,66.00
2018-08-14T09:27:02.789Z,65.40
2018-08-14T09:29:31.240Z,64.00
2018-08-14T09:31:59.730Z,63.40
2018-08-14T09:34:28.239Z,62.60
2018-08-14T09:36:56.863Z,62.40
2018-08-14T09:39:25.403Z,63.40
2018-08-14T09:41:53.935Z,62.70
2018-08-14T09:44:22.401Z,62.50
2018-08-14T09:46:50.926Z,63.70
2018-08-14T09:49:19.419Z,61.70
2018-08-14T09:51:47.925Z,60.10
2018-08-14T09:54:16.451Z,58.80
2018-08-14T09:56:45.001Z,58.40
2018-08-14T09:59:13.493Z,57.10
2018-08-14T10:01:47.225Z,57.60
2018-08-14T10:04:21.559Z,59.30
2018-08-14T10:06:55.502Z,59.50
2018-08-14T10:09:24.778Z,59.80
2018-08-14T10:11:54.132Z,59.30
2018-08-14T10:14:29.352Z,59.80
2018-08-14T10:16:58.969Z,58.40
2018-08-14T10:19:28.030Z,58.20
2018-08-14T10:21:56.585Z,58.00
2018-08-14T10:24:25.069Z,55.20
2018-08-14T10:26:53.570Z,54.20
2018-08-14T10:29:22.071Z,53.70
2018-08-14T10:31:50.698Z,53.90
2018-08-14T10:34:19.254Z,53.30
2018-08-14T10:36:47.822Z,54.50
2018-08-14T10:39:16.309Z,53.50
2018-08-14T10:41:45.026Z,55.00
2018-08-14T10:44:13.491Z,54.80
2018-08-14T10:46:41.954Z,55.10
2018-08-14T10:49:10.461Z,55.10
2018-08-14T10:51:38.949Z,54.80
2018-08-14T10:54:07.973Z,55.80
2018-08-14T10:56:36.462Z,54.10
2018-08-14T10:59:04.924Z,52.80
2018-08-14T11:01:33.530Z,51.70
2018-08-14T11:04:02.113Z,52.10
2018-08-14T11:06:30.628Z,52.00
2018-08-14T11:08:59.191Z,51.80
2018-08-14T11:11:29.652Z,52.50
2018-08-14T11:13:58.452Z,52.60
2018-08-14T11:16:27.394Z,54.00
2018-08-14T11:18:55.816Z,54.10
2018-08-14T11:21:24.383Z,52.90
2018-08-14T11:23:52.941Z,53.30
2018-08-14T11:26:21.427Z,53.30
2018-08-14T11:28:49.984Z,52.10
2018-08-14T11:31:18.486Z,51.80
2018-08-14T11:33:47.018Z,52.00
2018-08-14T11:36:15.493Z,53.20
2018-08-14T11:38:44.014Z,53.70
2018-08-14T11:41:12.533Z,54.00
2018-08-14T11:43:41.144Z,54.00
2018-08-14T11:46:09.948Z,54.50
2018-08-14T11:48:38.463Z,53.10
2018-08-14T11:51:07.005Z,54.00
2018-08-14T11:53:35.507Z,53.50
2018-08-14T11:56:04.082Z,52.30
2018-08-14T11:58:32.845Z,52.00
2018-08-14T12:01:01.336Z,50.70
2018-08-14T12:03:35.809Z,51.40
2018-08-14T12:06:04.336Z,50.50
2018-08-14T12:08:32.882Z,50.90
2018-08-14T12:11:01.496Z,51.00
2018-08-14T12:13:29.950Z,51.20
2018-08-14T12:15:58.396Z,51.60
2018-08-14T12:18:26.945Z,52.30
2018-08-14T12:20:55.406Z,51.90
2018-08-14T12:23:23.937Z,51.70
2018-08-14T12:25:52.425Z,51.00
2018-08-14T12:28:20.933Z,50.80
2018-08-14T12:30:49.411Z,50.30
2018-08-14T12:33:17.947Z,50.90
2018-08-14T12:35:46.401Z,51.10
2018-08-14T12:38:14.877Z,51.40
2018-08-14T12:40:43.341Z,52.10
2018-08-14T12:43:11.808Z,53.20
2018-08-14T12:45:40.275Z,53.40
2018-08-14T12:48:08.801Z,53.80
2018-08-14T12:50:37.266Z,53.90
2018-08-14T12:53:05.940Z,55.80
2018-08-14T12:55:34.396Z,57.50
2018-08-14T12:58:02.937Z,59.20
2018-08-14T13:00:31.474Z,60.60
2018-08-14T13:02:59.959Z,61.50
2018-08-14T13:05:28.807Z,62.20
2018-08-14T13:07:57.644Z,62.10
2018-08-14T13:10:26.191Z,62.40
2018-08-14T13:12:54.683Z,62.90
2018-08-14T13:15:23.305Z,62.70
2018-08-14T13:18:08.325Z,62.80
2018-08-14T13:20:36.869Z,62.50
2018-08-14T13:23:06.701Z,62.10
2018-08-14T13:25:35.255Z,61.50
2018-08-14T13:28:03.933Z,62.20
2018-08-14T13:30:32.474Z,61.60
2018-08-14T13:33:00.978Z,59.90
2018-08-14T13:35:29.529Z,60.00
2018-08-14T13:37:58.014Z,59.90
2018-08-14T13:40:26.520Z,58.30
2018-08-14T13:42:54.965Z,58.60
2018-08-14T13:45:23.504Z,58.50
2018-08-14T13:47:52.041Z,58.50
2018-08-14T13:50:20.532Z,58.30
2018-08-14T13:52:49.069Z,58.20
2018-08-14T13:55:19.039Z,58.00
2018-08-14T13:57:47.998Z,57.70
2018-08-14T14:00:20.026Z,57.50
2018-08-14T14:02:48.525Z,57.70
2018-08-14T14:05:17.062Z,56.00
2018-08-14T14:07:45.541Z,56.10
2018-08-14T14:10:15.462Z,54.20
2018-08-14T14:12:44.202Z,53.00
2018-08-14T14:15:18.051Z,53.30
2018-08-14T14:17:47.714Z,51.70
2018-08-14T14:20:17.956Z,50.80
2018-08-14T14:22:46.435Z,51.00
2018-08-14T14:25:14.893Z,51.40
2018-08-14T14:27:43.438Z,51.60
2018-08-14T14:30:13.938Z,51.80
2018-08-14T14:32:42.903Z,51.40
2018-08-14T14:35:12.289Z,51.70
2018-08-14T14:37:41.003Z,52.30
2018-08-14T14:40:23.746Z,52.90
2018-08-14T14:42:53.800Z,53.10
2018-08-14T14:45:22.307Z,53.50
2018-08-14T14:47:50.813Z,58.70
2018-08-14T14:50:19.432Z,61.70
2018-08-14T14:52:47.945Z,64.10
2018-08-14T14:55:18.853Z,68.20
2018-08-14T14:57:47.445Z,69.30
2018-08-14T15:00:20.131Z,69.70
2018-08-14T15:02:50.492Z,71.40
2018-08-14T15:05:19.056Z,72.00
2018-08-14T15:07:48.449Z,72.50
2018-08-14T15:10:17.013Z,73.40
2018-08-14T15:12:45.530Z,73.80
2018-08-14T15:15:14.231Z,73.60
2018-08-14T15:17:43.308Z,74.40
2018-08-14T15:20:16.029Z,74.30
2018-08-14T15:22:45.297Z,74.60
2018-08-14T15:25:15.112Z,72.90
2018-08-14T15:29:11.152Z,72.60
2018-08-14T15:31:42.501Z,72.40
2018-08-14T15:34:13.540Z,72.50
2018-08-14T15:36:43.050Z,73.80
2018-08-14T15:39:12.617Z,72.80
2018-08-14T15:41:41.291Z,72.40
2018-08-14T15:44:10.181Z,72.20
2018-08-14T15:46:39.529Z,70.60
2018-08-14T15:49:08.849Z,71.80
2018-08-14T15:51:37.392Z,71.60
2018-08-14T15:54:06.649Z,70.70
2018-08-14T15:56:35.272Z,71.70
2018-08-14T15:59:03.887Z,71.60
2018-08-14T16:01:33.328Z,71.60
2018-08-14T16:04:02.135Z,71.40
2018-08-14T16:06:30.765Z,71.40
2018-08-14T16:08:59.805Z,71.60
2018-08-14T16:11:28.393Z,70.30
2018-08-14T16:13:56.953Z,68.40
2018-08-14T16:16:25.461Z,67.90
2018-08-14T16:18:53.969Z,68.00
2018-08-14T16:21:22.484Z,67.30
2018-08-14T16:23:50.981Z,65.90
2018-08-14T16:26:19.422Z,65.20
2018-08-14T16:28:47.900Z,66.30
2018-08-14T16:31:16.380Z,64.30
2018-08-14T16:33:44.942Z,64.00
2018-08-14T16:36:13.404Z,63.60
2018-08-14T16:38:41.887Z,64.50
2018-08-14T16:41:10.431Z,64.20
2018-08-14T16:43:38.962Z,63.80
2018-08-14T16:46:07.506Z,64.00
2018-08-14T16:48:35.985Z,64.10
2018-08-14T16:51:04.457Z,64.30
2018-08-14T16:53:32.920Z,63.60
2018-08-14T16:56:01.438Z,63.60
2018-08-14T16:58:29.945Z,61.80
2018-08-14T17:00:58.422Z,61.50
2018-08-14T17:03:26.881Z,62.50
2018-08-14T17:05:58.332Z,62.40
2018-08-14T17:08:27.540Z,62.40
2018-08-14T17:10:56.189Z,62.80
2018-08-14T17:13:24.704Z,62.90
2018-08-14T17:15:53.162Z,63.50
2018-08-14T17:18:21.634Z,63.30
2018-08-14T17:20:48.965Z,64.00
2018-08-14T17:23:17.429Z,64.30
2018-08-14T17:25:45.899Z,64.30
2018-08-14T17:28:14.390Z,64.90
2018-08-14T17:30:47.588Z,65.60
2018-08-14T17:33:16.157Z,65.90
2018-08-14T17:35:44.612Z,66.90
2018-08-14T17:38:13.153Z,66.80
2018-08-14T17:40:41.633Z,66.60
2018-08-14T17:43:10.177Z,66.50
2018-08-14T17:45:38.671Z,66.60
2018-08-14T17:48:07.215Z,66.80
2018-08-14T17:50:35.773Z,66.90
2018-08-14T17:53:04.359Z,66.90
2018-08-14T17:55:32.934Z,67.30
2018-08-14T17:58:01.526Z,67.40
2018-08-14T18:00:32.191Z,67.40
2018-08-14T18:03:03.494Z,67.40
2018-08-14T18:05:31.998Z,67.80
2018-08-14T18:08:00.549Z,68.20
2018-08-14T18:10:29.026Z,68.30
2018-08-14T18:12:57.546Z,68.70
2018-08-14T18:15:26.005Z,69.00
2018-08-14T18:17:54.525Z,69.40
2018-08-14T18:20:24.830Z,69.50
2018-08-14T18:22:53.313Z,70.00
2018-08-14T18:25:22.939Z,70.20
2018-08-14T18:27:51.776Z,70.40
2018-08-14T18:30:21.137Z,70.70
2018-08-14T18:32:49.744Z,70.90
2018-08-14T18:35:20.713Z,71.10
2018-08-14T18:37:51.197Z,71.40
2018-08-14T18:40:21.718Z,71.40
2018-08-14T18:42:50.589Z,71.60
2018-08-14T18:45:20.357Z,71.60
2018-08-14T18:47:48.842Z,71.80
2018-08-14T18:50:18.140Z,72.00
2018-08-14T18:52:46.577Z,72.00
2018-08-14T18:55:16.917Z,72.20
2018-08-14T18:57:47.730Z,72.40
2018-08-14T19:00:20.438Z,72.50
2018-08-14T19:02:50.737Z,72.50
2018-08-14T19:05:20.066Z,72.60
2018-08-14T19:07:48.920Z,72.80
2018-08-14T19:10:18.781Z,72.80
2018-08-14T19:12:48.094Z,73.00
2018-08-14T19:15:21.737Z,73.10
2018-08-14T19:17:50.648Z,73.20
2018-08-14T19:20:19.862Z,72.90
2018-08-14T19:22:53.910Z,73.60
2018-08-14T19:25:24.671Z,73.70
2018-08-14T19:27:53.258Z,73.60
2018-08-14T19:30:22.590Z,74.00
2018-08-14T19:32:51.443Z,74.10
2018-08-14T19:35:20.570Z,74.20
2018-08-14T19:37:49.664Z,74.30
2018-08-14T19:40:22.163Z,74.40
2018-08-14T19:42:51.317Z,74.50
2018-08-14T19:45:20.157Z,74.60
2018-08-14T19:47:49.259Z,74.80
2018-08-14T19:50:18.743Z,74.90
2018-08-14T19:52:47.265Z,75.10
2018-08-14T19:55:18.220Z,75.30
2018-08-14T19:57:48.249Z,75.60
2018-08-14T20:00:21.158Z,75.70
2018-08-14T20:02:50.215Z,75.80
2018-08-14T20:05:18.626Z,75.70
2018-08-14T20:07:47.214Z,75.80
2018-08-14T20:10:15.778Z,76.00
2018-08-14T20:12:44.277Z,76.10
2018-08-14T20:15:14.719Z,76.20
2018-08-14T20:17:43.858Z,76.20
2018-08-14T20:20:15.906Z,76.30
2018-08-14T20:22:44.390Z,76.30
2018-08-14T20:25:12.921Z,76.40
2018-08-14T20:27:41.441Z,76.40
2018-08-14T20:30:12.759Z,76.70
2018-08-14T20:32:41.421Z,76.90
2018-08-14T20:35:11.656Z,76.90
2018-08-14T20:37:40.888Z,77.10
2018-08-14T20:40:12.183Z,77.30
2018-08-14T20:42:40.672Z,77.40
2018-08-14T20:45:10.996Z,77.60
2018-08-14T20:47:39.454Z,77.80
2018-08-14T20:50:12.049Z,77.90
2018-08-14T20:52:41.227Z,78.00
2018-08-14T20:55:11.862Z,77.90
2018-08-14T20:57:41.249Z,77.90
2018-08-14T21:00:20.056Z,78.00
2018-08-14T21:02:49.353Z,77.90
2018-08-14T21:05:18.437Z,78.00
2018-08-14T21:07:47.648Z,77.90
2018-08-14T21:10:16.863Z,77.90
2018-08-14T21:12:45.424Z,78.10
2018-08-14T21:15:16.150Z,78.50
2018-08-14T21:17:45.741Z,78.50
2018-08-14T21:20:15.881Z,78.60
2018-08-14T21:22:45.059Z,78.70
2018-08-14T21:25:13.545Z,78.80
2018-08-14T21:27:42.120Z,78.70
2018-08-14T21:30:12.667Z,78.90
2018-08-14T21:32:41.551Z,79.00
2018-08-14T21:35:11.976Z,79.10
2018-08-14T21:37:40.869Z,79.20
2018-08-14T21:40:11.722Z,79.40
2018-08-14T21:42:40.469Z,79.20
2018-08-14T21:45:10.846Z,79.30
2018-08-14T21:47:39.431Z,79.20
2018-08-14T21:50:08.064Z,80.30
2018-08-14T21:52:37.281Z,80.00
2018-08-14T21:55:06.643Z,80.10
2018-08-14T21:57:35.162Z,80.20
2018-08-14T22:00:05.350Z,80.30
2018-08-14T22:02:33.859Z,80.60
2018-08-14T22:05:02.437Z,80.90
2018-08-14T22:07:30.927Z,80.80
2018-08-14T22:09:59.462Z,80.80
2018-08-14T22:12:27.967Z,81.00
2018-08-14T22:14:56.494Z,81.10
2018-08-14T22:17:25.014Z,81.30
2018-08-14T22:19:53.943Z,82.20
2018-08-14T22:22:22.523Z,82.00
2018-08-14T22:24:50.979Z,82.00
2018-08-14T22:27:19.444Z,81.90
2018-08-14T22:29:47.957Z,82.00
2018-08-14T22:32:16.491Z,82.90
2018-08-14T22:34:44.969Z,82.50
2018-08-14T22:37:13.493Z,82.60
2018-08-14T22:39:41.926Z,82.80
2018-08-14T22:42:10.441Z,82.90
2018-08-14T22:44:39.027Z,83.10
2018-08-14T22:47:07.510Z,83.40
2018-08-14T22:49:35.957Z,83.40
2018-08-14T22:52:04.440Z,83.70
2018-08-14T22:54:32.915Z,83.60
2018-08-14T22:57:01.399Z,83.80
2018-08-14T22:59:29.889Z,83.80
2018-08-14T23:01:58.378Z,84.00
2018-08-14T23:04:27.065Z,83.80
2018-08-14T23:06:55.556Z,83.70
2018-08-14T23:09:24.047Z,83.70
2018-08-14T23:11:52.553Z,83.80
2018-08-14T23:14:23.119Z,83.80
2018-08-14T23:16:51.624Z,83.90
2018-08-14T23:19:20.106Z,84.00
2018-08-14T23:21:48.599Z,84.00
2018-08-14T23:24:17.087Z,84.00
2018-08-14T23:26:45.570Z,84.40
2018-08-14T23:29:14.039Z,84.70
2018-08-14T23:31:43.534Z,85.30
2018-08-14T23:34:12.031Z,84.60
2018-08-14T23:36:40.549Z,85.10
2018-08-14T23:39:11.606Z,85.20
2018-08-14T23:41:40.288Z,85.30
2018-08-14T23:44:08.837Z,85.90
2018-08-14T23:46:37.449Z,86.20
2018-08-14T23:49:05.949Z,86.30
2018-08-14T23:51:34.521Z,86.70
2018-08-14T23:54:02.998Z,86.90
2018-08-14T23:56:31.467Z,87.10
2018-08-14T23:58:59.945Z,86.90
